createdAt,value
2022-09-14T00:00:33.690Z,16.60
2022-09-14T00:03:03.298Z,16.60
2022-09-14T00:05:31.451Z,16.60
2022-09-14T00:07:59.722Z,16.60
2022-09-14T00:10:28.054Z,16.60
2022-09-14T00:12:56.195Z,16.60
2022-09-14T00:15:24.256Z,16.60
2022-09-14T00:17:52.403Z,16.60
2022-09-14T00:20:21.945Z,16.60
2022-09-14T00:22:50.570Z,16.60
2022-09-14T00:25:19.385Z,16.60
2022-09-14T00:27:47.877Z,16.60
2022-09-14T00:30:16.093Z,16.60
2022-09-14T00:32:44.248Z,16.60
2022-09-14T00:35:12.446Z,16.60
2022-09-14T00:37:41.949Z,16.60
2022-09-14T00:40:12.607Z,16.60
2022-09-14T00:42:40.768Z,16.60
2022-09-14T00:45:14.368Z,16.60
2022-09-14T00:47:43.458Z,16.60
2022-09-14T00:50:11.939Z,16.60
2022-09-14T00:52:42.728Z,16.60
2022-09-14T00:55:12.292Z,16.60
2022-09-14T00:57:42.674Z,16.60
2022-09-14T01:00:11.651Z,16.60
2022-09-14T01:02:39.867Z,16.60
2022-09-14T01:05:09.293Z,16.60
2022-09-14T01:08:25.252Z,16.50
2022-09-14T01:11:04.523Z,16.50
2022-09-14T01:13:35.516Z,16.50
2022-09-14T01:16:07.527Z,16.50
2022-09-14T01:18:37.922Z,16.50
2022-09-14T01:21:09.588Z,16.50
2022-09-14T01:23:43.318Z,16.50
2022-09-14T01:26:34.949Z,16.50
2022-09-14T01:29:07.035Z,16.50
2022-09-14T01:31:37.667Z,16.60
2022-09-14T01:34:09.004Z,16.50
2022-09-14T01:36:37.781Z,16.50
2022-09-14T01:39:06.012Z,16.50
2022-09-14T01:41:34.150Z,16.50
2022-09-14T01:44:07.492Z,16.40
2022-09-14T01:46:37.149Z,16.40
2022-09-14T01:49:08.367Z,16.40
2022-09-14T01:51:39.647Z,16.30
2022-09-14T01:54:10.814Z,16.20
2022-09-14T01:56:40.235Z,16.20
2022-09-14T01:59:12.181Z,16.20
2022-09-14T02:01:43.447Z,16.20
2022-09-14T02:04:14.902Z,16.10
2022-09-14T02:06:44.478Z,16.10
2022-09-14T02:09:13.650Z,16.00
2022-09-14T02:11:41.743Z,16.10
2022-09-14T02:14:11.373Z,16.00
2022-09-14T02:16:40.311Z,16.00
2022-09-14T02:19:08.557Z,16.00
2022-09-14T02:21:37.881Z,16.00
2022-09-14T02:24:06.458Z,16.00
2022-09-14T02:26:34.644Z,16.00
2022-09-14T02:29:03.011Z,15.90
2022-09-14T02:31:38.711Z,15.80
2022-09-14T02:34:09.684Z,15.80
2022-09-14T02:36:43.663Z,15.80
2022-09-14T02:39:15.004Z,15.80
2022-09-14T02:41:46.826Z,15.70
2022-09-14T02:44:19.039Z,15.70
2022-09-14T02:46:51.611Z,15.60
2022-09-14T02:49:22.269Z,15.60
2022-09-14T02:51:54.026Z,15.50
2022-09-14T02:54:23.832Z,15.50
2022-09-14T02:56:51.934Z,15.50
2022-09-14T02:59:20.276Z,15.40
2022-09-14T03:01:50.376Z,15.40
2022-09-14T03:04:18.555Z,15.40
2022-09-14T03:06:46.880Z,15.30
2022-09-14T03:09:15.009Z,15.30
2022-09-14T03:11:43.166Z,15.20
2022-09-14T03:14:11.651Z,15.30
2022-09-14T03:16:39.842Z,15.30
2022-09-14T03:19:10.908Z,15.30
2022-09-14T03:21:39.532Z,15.30
2022-09-14T03:24:07.786Z,15.40
2022-09-14T03:26:36.990Z,15.40
2022-09-14T03:29:05.638Z,15.40
2022-09-14T03:31:34.064Z,15.40
2022-09-14T03:34:02.854Z,15.40
2022-09-14T03:36:32.517Z,15.40
2022-09-14T03:39:01.950Z,15.40
2022-09-14T03:41:30.356Z,15.50
2022-09-14T03:43:58.470Z,15.40
2022-09-14T03:46:26.870Z,15.40
2022-09-14T03:48:55.828Z,15.30
2022-09-14T03:51:24.218Z,15.30
2022-09-14T03:53:53.944Z,15.30
2022-09-14T03:56:22.922Z,15.20
2022-09-14T03:58:51.317Z,15.10
2022-09-14T04:01:20.355Z,15.10
2022-09-14T04:03:48.619Z,15.10
2022-09-14T04:06:17.176Z,15.10
2022-09-14T04:08:46.184Z,15.10
2022-09-14T04:11:17.155Z,15.00
2022-09-14T04:13:45.470Z,15.10
2022-09-14T04:16:14.011Z,15.20
2022-09-14T04:18:42.396Z,15.10
2022-09-14T04:21:13.852Z,15.10
2022-09-14T04:24:03.423Z,15.00
2022-09-14T04:26:32.297Z,15.00
2022-09-14T04:29:00.431Z,15.00
2022-09-14T04:31:28.943Z,15.00
2022-09-14T04:33:57.492Z,14.90
2022-09-14T04:36:28.514Z,14.90
2022-09-14T04:38:57.878Z,14.90
2022-09-14T04:41:26.042Z,14.80
2022-09-14T04:43:55.939Z,14.80
2022-09-14T04:46:24.794Z,14.80
2022-09-14T04:48:52.980Z,14.80
2022-09-14T04:51:22.797Z,14.80
2022-09-14T04:53:51.760Z,14.80
2022-09-14T04:56:20.346Z,14.70
2022-09-14T04:58:51.813Z,14.70
2022-09-14T05:01:22.493Z,14.70
2022-09-14T05:03:51.395Z,14.70
2022-09-14T05:06:20.345Z,14.70
2022-09-14T05:08:48.931Z,14.70
2022-09-14T05:11:18.528Z,14.70
2022-09-14T05:13:49.909Z,14.70
2022-09-14T05:16:19.312Z,14.70
2022-09-14T05:18:49.339Z,14.70
2022-09-14T05:21:19.383Z,14.70
2022-09-14T05:23:47.730Z,14.70
2022-09-14T05:26:16.177Z,14.70
2022-09-14T05:28:44.381Z,14.80
2022-09-14T05:31:13.272Z,14.70
2022-09-14T05:33:41.636Z,14.70
2022-09-14T05:36:12.052Z,14.80
2022-09-14T05:38:40.998Z,14.90
2022-09-14T05:41:09.872Z,14.90
2022-09-14T05:43:38.123Z,15.00
2022-09-14T05:46:07.403Z,15.10
2022-09-14T05:48:35.986Z,15.20
2022-09-14T05:51:04.975Z,15.30
2022-09-14T05:53:34.845Z,15.40
2022-09-14T05:56:03.716Z,15.40
2022-09-14T05:58:31.944Z,15.40
2022-09-14T06:01:00.085Z,15.50
2022-09-14T06:03:28.209Z,15.60
2022-09-14T06:05:59.044Z,15.60
2022-09-14T06:08:27.117Z,15.60
2022-09-14T06:10:56.694Z,15.70
2022-09-14T06:13:24.869Z,15.80
2022-09-14T06:15:53.024Z,15.80
2022-09-14T06:18:21.147Z,15.90
2022-09-14T06:20:52.671Z,15.90
2022-09-14T06:23:20.793Z,16.00
2022-09-14T06:25:48.896Z,16.00
2022-09-14T06:28:18.393Z,16.10
2022-09-14T06:30:46.576Z,16.10
2022-09-14T06:33:14.753Z,16.20
2022-09-14T06:35:42.907Z,16.30
2022-09-14T06:38:11.125Z,16.30
2022-09-14T06:40:39.384Z,16.40
2022-09-14T06:43:07.457Z,16.40
2022-09-14T06:45:37.462Z,16.40
2022-09-14T06:48:05.799Z,16.40
2022-09-14T06:50:33.876Z,16.50
2022-09-14T06:53:01.957Z,16.50
2022-09-14T06:55:30.134Z,16.50
2022-09-14T06:57:58.241Z,16.60
2022-09-14T07:00:26.360Z,16.60
2022-09-14T07:02:56.016Z,16.60
2022-09-14T07:05:24.297Z,16.60
2022-09-14T07:07:53.555Z,16.70
2022-09-14T07:10:21.677Z,16.80
2022-09-14T07:12:49.838Z,16.90
2022-09-14T07:15:18.421Z,16.90
2022-09-14T07:17:47.216Z,16.90
2022-09-14T07:20:17.008Z,16.90
2022-09-14T07:22:45.259Z,16.90
2022-09-14T07:25:13.502Z,17.00
2022-09-14T07:27:41.657Z,17.00
2022-09-14T07:30:10.748Z,17.00
2022-09-14T07:32:38.854Z,17.00
2022-09-14T07:35:07.495Z,17.10
2022-09-14T07:37:36.936Z,17.10
2022-09-14T07:40:05.481Z,17.10
2022-09-14T07:42:33.590Z,17.10
2022-09-14T07:45:01.685Z,17.10
2022-09-14T07:47:29.749Z,17.10
2022-09-14T07:49:57.932Z,17.10
2022-09-14T07:52:26.280Z,17.20
2022-09-14T07:54:56.183Z,17.20
2022-09-14T07:57:45.553Z,17.20
2022-09-14T08:00:13.399Z,17.30
2022-09-14T08:02:41.681Z,17.30
2022-09-14T08:05:11.263Z,17.30
2022-09-14T08:07:39.360Z,17.30
2022-09-14T08:10:10.113Z,17.30
2022-09-14T08:12:38.200Z,17.40
2022-09-14T08:15:07.527Z,17.40
2022-09-14T08:17:35.625Z,17.40
2022-09-14T08:20:04.539Z,17.40
2022-09-14T08:22:32.638Z,17.50
2022-09-14T08:25:00.783Z,17.50
2022-09-14T08:27:30.180Z,17.60
2022-09-14T08:29:58.325Z,17.60
2022-09-14T08:32:26.443Z,17.60
2022-09-14T08:34:54.505Z,17.70
2022-09-14T08:37:22.611Z,17.70
2022-09-14T08:39:51.825Z,17.70
2022-09-14T08:42:22.984Z,17.80
2022-09-14T08:44:54.672Z,17.80
2022-09-14T08:47:25.104Z,17.80
2022-09-14T08:49:55.736Z,17.90
2022-09-14T08:52:25.916Z,18.00
2022-09-14T08:54:55.711Z,18.00
2022-09-14T08:57:30.140Z,18.10
2022-09-14T09:00:06.138Z,18.10
2022-09-14T09:03:19.591Z,18.10
2022-09-14T09:05:50.140Z,18.20
2022-09-14T09:08:21.052Z,18.30
2022-09-14T09:10:49.248Z,18.30
2022-09-14T09:13:21.760Z,18.30
2022-09-14T09:15:52.086Z,18.40
2022-09-14T09:18:23.999Z,18.40
2022-09-14T09:20:53.124Z,18.50
2022-09-14T09:23:21.832Z,18.60
2022-09-14T09:25:55.848Z,18.70
2022-09-14T09:28:24.606Z,18.70
2022-09-14T09:30:54.446Z,18.70
2022-09-14T09:33:23.269Z,18.70
2022-09-14T09:35:51.559Z,18.70
2022-09-14T09:38:24.862Z,18.70
2022-09-14T09:40:55.454Z,18.70
2022-09-14T09:43:38.905Z,18.70
2022-09-14T09:46:13.491Z,18.70
2022-09-14T09:48:43.114Z,18.70
2022-09-14T09:51:13.765Z,18.60
2022-09-14T09:53:48.218Z,18.60
2022-09-14T09:56:21.192Z,18.70
2022-09-14T09:58:51.821Z,18.70
2022-09-14T10:01:24.264Z,18.70
2022-09-14T10:04:06.956Z,18.70
2022-09-14T10:06:42.266Z,18.70
2022-09-14T10:09:14.638Z,18.70
2022-09-14T10:11:43.453Z,18.70
2022-09-14T10:14:23.442Z,18.80
2022-09-14T10:16:52.981Z,18.80
2022-09-14T10:19:23.656Z,18.80
2022-09-14T10:22:04.560Z,18.70
2022-09-14T10:24:33.594Z,18.70
2022-09-14T10:27:01.811Z,18.70
2022-09-14T10:29:40.681Z,18.60
2022-09-14T10:32:17.910Z,18.60
2022-09-14T10:34:46.274Z,18.60
2022-09-14T10:37:35.256Z,18.60
2022-09-14T10:40:14.936Z,18.60
2022-09-14T10:42:51.304Z,18.60
2022-09-14T10:45:20.766Z,18.60
2022-09-14T10:48:03.863Z,18.60
2022-09-14T10:50:41.490Z,18.60
2022-09-14T10:53:15.984Z,18.50
2022-09-14T10:55:47.261Z,18.50
2022-09-14T10:58:25.538Z,18.50
2022-09-14T11:00:59.463Z,18.50
2022-09-14T11:03:34.864Z,18.50
2022-09-14T11:06:09.418Z,18.50
2022-09-14T11:08:40.663Z,18.40
2022-09-14T11:11:25.415Z,18.40
2022-09-14T11:13:59.738Z,18.20
2022-09-14T11:16:47.901Z,18.10
2022-09-14T11:19:21.184Z,18.00
2022-09-14T11:21:51.435Z,17.90
2022-09-14T11:24:22.706Z,17.80
2022-09-14T11:26:56.113Z,17.80
2022-09-14T11:29:25.888Z,17.70
2022-09-14T11:32:19.401Z,17.70
2022-09-14T11:34:47.842Z,17.70
2022-09-14T11:37:17.782Z,17.70
2022-09-14T11:39:47.739Z,17.70
2022-09-14T11:42:17.707Z,17.70
2022-09-14T11:44:47.146Z,17.60
2022-09-14T11:47:18.162Z,17.50
2022-09-14T11:49:55.859Z,17.50
2022-09-14T11:52:25.181Z,17.40
2022-09-14T11:54:53.437Z,17.40
2022-09-14T11:57:22.388Z,17.40
2022-09-14T11:59:52.450Z,17.30
2022-09-14T12:03:13.454Z,17.30
2022-09-14T12:05:44.801Z,17.30
2022-09-14T12:08:37.065Z,17.20
2022-09-14T12:11:32.027Z,17.20
2022-09-14T12:14:14.898Z,17.20
2022-09-14T12:17:22.585Z,17.20
2022-09-14T12:19:55.629Z,17.10
2022-09-14T12:22:31.408Z,17.10
2022-09-14T12:25:01.921Z,17.10
2022-09-14T12:27:32.356Z,17.10
2022-09-14T12:30:01.010Z,17.10
2022-09-14T12:32:40.330Z,17.00
2022-09-14T12:35:37.422Z,17.00
2022-09-14T12:38:39.198Z,17.00
2022-09-14T12:41:55.917Z,17.00
2022-09-14T12:44:37.539Z,17.10
2022-09-14T12:47:39.368Z,17.00
2022-09-14T12:50:19.124Z,17.00
2022-09-14T12:53:11.747Z,17.00
2022-09-14T12:55:50.698Z,17.00
2022-09-14T12:58:30.114Z,17.00
2022-09-14T13:01:18.670Z,17.00
2022-09-14T13:03:51.561Z,17.00
2022-09-14T13:06:19.781Z,17.00
2022-09-14T13:08:49.026Z,17.00
2022-09-14T13:11:22.428Z,17.00
2022-09-14T13:13:53.218Z,17.00
2022-09-14T13:16:31.945Z,17.00
2022-09-14T13:19:04.897Z,17.00
2022-09-14T13:21:33.274Z,17.00
2022-09-14T13:24:01.495Z,17.00
2022-09-14T13:26:31.667Z,17.00
2022-09-14T13:29:01.944Z,16.90
2022-09-14T13:31:32.614Z,16.90
2022-09-14T13:34:00.968Z,16.90
2022-09-14T13:36:31.852Z,16.90
2022-09-14T13:39:01.747Z,16.90
2022-09-14T13:41:30.727Z,16.90
2022-09-14T13:44:00.364Z,16.90
2022-09-14T13:46:28.855Z,16.90
2022-09-14T13:48:57.062Z,17.00
2022-09-14T13:51:27.429Z,17.00
2022-09-14T13:53:56.426Z,17.00
2022-09-14T13:56:31.383Z,17.00
2022-09-14T13:59:18.437Z,17.00
2022-09-14T14:01:53.786Z,17.00
2022-09-14T14:04:25.676Z,17.10
2022-09-14T14:07:00.690Z,17.20
2022-09-14T14:09:42.688Z,17.20
2022-09-14T14:12:12.310Z,17.20
2022-09-14T14:14:41.922Z,17.30
2022-09-14T14:17:33.092Z,17.30
2022-09-14T14:20:01.739Z,17.30
2022-09-14T14:22:31.014Z,17.40
2022-09-14T14:25:13.325Z,17.40
2022-09-14T14:27:44.203Z,17.40
2022-09-14T14:30:16.729Z,17.30
2022-09-14T14:32:44.840Z,17.30
2022-09-14T14:35:16.112Z,17.30
2022-09-14T14:37:44.182Z,17.30
2022-09-14T14:40:13.101Z,17.30
2022-09-14T14:42:41.422Z,17.20
2022-09-14T14:45:15.151Z,17.20
2022-09-14T14:47:43.244Z,17.20
2022-09-14T14:50:15.252Z,17.20
2022-09-14T14:52:43.498Z,17.20
2022-09-14T14:55:11.745Z,17.20
2022-09-14T14:57:39.955Z,17.20
2022-09-14T15:00:13.278Z,17.10
2022-09-14T15:02:43.043Z,17.20
2022-09-14T15:05:11.632Z,17.10
2022-09-14T15:07:39.782Z,17.20
2022-09-14T15:10:09.438Z,17.20
2022-09-14T15:12:37.631Z,17.10
2022-09-14T15:15:06.960Z,17.10
2022-09-14T15:17:35.221Z,17.10
2022-09-14T15:20:05.434Z,17.10
2022-09-14T15:22:33.506Z,17.10
2022-09-14T15:25:01.874Z,17.10
2022-09-14T15:27:29.954Z,17.10
2022-09-14T15:29:58.236Z,17.10
2022-09-14T15:32:26.468Z,17.10
2022-09-14T15:34:55.137Z,17.10
2022-09-14T15:37:24.912Z,17.10
2022-09-14T15:39:53.051Z,17.10
2022-09-14T15:42:21.344Z,17.10
2022-09-14T15:44:49.856Z,17.10
2022-09-14T15:47:18.165Z,17.10
2022-09-14T15:49:46.782Z,17.10
2022-09-14T15:52:14.959Z,17.10
2022-09-14T15:54:44.537Z,17.10
2022-09-14T15:57:13.431Z,17.00
2022-09-14T15:59:41.694Z,17.10
2022-09-14T16:02:12.063Z,17.10
2022-09-14T16:04:40.805Z,17.10
2022-09-14T16:07:10.769Z,17.10
2022-09-14T16:09:39.634Z,17.10
2022-09-14T16:12:09.682Z,17.00
2022-09-14T16:14:38.305Z,17.00
2022-09-14T16:17:06.756Z,17.00
2022-09-14T16:19:34.890Z,17.00
2022-09-14T16:22:03.261Z,17.00
2022-09-14T16:24:32.417Z,17.00
2022-09-14T16:27:00.970Z,17.00
2022-09-14T16:29:30.526Z,16.90
2022-09-14T16:31:58.875Z,16.90
2022-09-14T16:34:28.699Z,16.90
2022-09-14T16:36:58.802Z,16.90
2022-09-14T16:39:28.801Z,16.90
2022-09-14T16:41:57.421Z,16.90
2022-09-14T16:44:26.720Z,16.80
2022-09-14T16:46:57.839Z,16.80
2022-09-14T16:49:27.766Z,16.70
2022-09-14T16:51:56.568Z,16.70
2022-09-14T16:54:25.871Z,16.70
2022-09-14T16:56:56.881Z,16.70
2022-09-14T16:59:25.186Z,16.60
2022-09-14T17:01:55.015Z,16.60
2022-09-14T17:04:25.742Z,16.60
2022-09-14T17:06:56.012Z,16.70
2022-09-14T17:09:31.672Z,16.60
2022-09-14T17:11:59.882Z,16.70
2022-09-14T17:14:28.908Z,16.70
2022-09-14T17:16:57.034Z,16.70
2022-09-14T17:19:27.087Z,16.60
2022-09-14T17:21:55.317Z,16.60
2022-09-14T17:24:24.180Z,16.60
2022-09-14T17:26:52.857Z,16.60
2022-09-14T17:29:21.258Z,16.60
2022-09-14T17:31:50.943Z,16.60
2022-09-14T17:34:19.168Z,16.60
2022-09-14T17:36:48.640Z,16.60
2022-09-14T17:39:17.192Z,16.60
2022-09-14T17:41:45.651Z,16.50
2022-09-14T17:44:14.586Z,16.50
2022-09-14T17:46:52.914Z,16.50
2022-09-14T17:49:22.001Z,16.50
2022-09-14T17:51:51.568Z,16.60
2022-09-14T17:54:19.959Z,16.50
2022-09-14T17:56:48.747Z,16.50
2022-09-14T17:59:20.500Z,16.50
2022-09-14T18:01:48.951Z,16.50
2022-09-14T18:04:17.310Z,16.50
2022-09-14T18:06:46.207Z,16.50
2022-09-14T18:09:17.027Z,16.50
2022-09-14T18:11:45.367Z,16.50
2022-09-14T18:14:14.006Z,16.50
2022-09-14T18:16:42.346Z,16.50
2022-09-14T18:19:10.577Z,16.50
2022-09-14T18:21:38.880Z,16.50
2022-09-14T18:24:07.420Z,16.50
2022-09-14T18:26:38.276Z,16.50
2022-09-14T18:29:06.878Z,16.50
2022-09-14T18:31:35.084Z,16.50
2022-09-14T18:34:03.380Z,16.50
2022-09-14T18:36:32.064Z,16.50
2022-09-14T18:39:00.659Z,16.50
2022-09-14T18:41:31.357Z,16.50
2022-09-14T18:44:01.348Z,16.50
2022-09-14T18:46:29.546Z,16.50
2022-09-14T18:48:58.885Z,16.50
2022-09-14T18:51:27.374Z,16.50
2022-09-14T18:53:58.543Z,16.50
2022-09-14T18:56:27.009Z,16.60
2022-09-14T18:58:55.107Z,16.50
2022-09-14T19:01:25.026Z,16.50
2022-09-14T19:03:53.865Z,16.50
2022-09-14T19:06:22.058Z,16.60
2022-09-14T19:08:50.609Z,16.60
2022-09-14T19:11:19.838Z,16.60
2022-09-14T19:13:48.342Z,16.50
2022-09-14T19:16:18.330Z,16.50
2022-09-14T19:18:48.669Z,16.50
2022-09-14T19:21:21.635Z,16.50
2022-09-14T19:23:57.207Z,16.50
2022-09-14T19:26:25.392Z,16.50
2022-09-14T19:28:53.901Z,16.50
2022-09-14T19:31:23.504Z,16.50
2022-09-14T19:33:53.487Z,16.50
2022-09-14T19:36:22.940Z,16.50
2022-09-14T19:38:51.894Z,16.50
2022-09-14T19:41:20.217Z,16.50
2022-09-14T19:43:48.476Z,16.50
2022-09-14T19:46:18.289Z,16.50
2022-09-14T19:48:46.968Z,16.50
2022-09-14T19:51:17.773Z,16.50
2022-09-14T19:53:47.426Z,16.50
2022-09-14T19:56:16.741Z,16.50
2022-09-14T19:58:46.881Z,16.50
2022-09-14T20:01:15.501Z,16.50
2022-09-14T20:03:44.787Z,16.50
2022-09-14T20:06:19.456Z,16.40
2022-09-14T20:08:49.282Z,16.50
2022-09-14T20:11:20.078Z,16.50
2022-09-14T20:13:48.983Z,16.50
2022-09-14T20:16:18.621Z,16.40
2022-09-14T20:18:47.389Z,16.40
2022-09-14T20:21:17.935Z,16.40
2022-09-14T20:24:11.660Z,16.40
2022-09-14T20:26:35.905Z,16.40
2022-09-14T20:29:04.103Z,16.40
2022-09-14T20:31:32.570Z,16.50
2022-09-14T20:34:00.860Z,16.40
2022-09-14T20:36:29.873Z,16.40
2022-09-14T20:38:59.289Z,16.40
2022-09-14T20:41:28.924Z,16.40
2022-09-14T20:43:58.804Z,16.40
2022-09-14T20:46:27.752Z,16.40
2022-09-14T20:48:56.048Z,16.40
2022-09-14T20:51:25.222Z,16.40
2022-09-14T20:53:53.472Z,16.40
2022-09-14T20:56:22.293Z,16.40
2022-09-14T20:58:50.715Z,16.40
2022-09-14T21:01:22.255Z,16.40
2022-09-14T21:03:51.063Z,16.40
2022-09-14T21:06:20.915Z,16.40
2022-09-14T21:08:49.295Z,16.40
2022-09-14T21:11:19.788Z,16.40
2022-09-14T21:13:48.234Z,16.40
2022-09-14T21:16:17.428Z,16.40
2022-09-14T21:18:47.850Z,16.40
2022-09-14T21:21:16.791Z,16.40
2022-09-14T21:23:45.223Z,16.30
2022-09-14T21:26:13.930Z,16.30
2022-09-14T21:28:42.671Z,16.30
2022-09-14T21:31:12.691Z,16.30
2022-09-14T21:33:42.288Z,16.30
2022-09-14T21:36:13.258Z,16.30
2022-09-14T21:38:41.663Z,16.30
2022-09-14T21:41:10.622Z,16.20
2022-09-14T21:43:39.366Z,16.30
2022-09-14T21:46:07.912Z,16.30
2022-09-14T21:48:36.440Z,16.30
2022-09-14T21:51:08.917Z,16.30
2022-09-14T21:53:38.615Z,16.30
2022-09-14T21:56:07.265Z,16.30
2022-09-14T21:58:36.763Z,16.30
2022-09-14T22:01:05.148Z,16.30
2022-09-14T22:03:33.438Z,16.30
2022-09-14T22:06:02.825Z,16.30
2022-09-14T22:08:32.553Z,16.30
2022-09-14T22:11:05.367Z,16.30
2022-09-14T22:13:33.644Z,16.30
2022-09-14T22:16:08.054Z,16.30
2022-09-14T22:18:36.825Z,16.30
2022-09-14T22:21:05.509Z,16.30
2022-09-14T22:23:34.028Z,16.30
2022-09-14T22:26:09.351Z,16.30
2022-09-14T22:28:39.594Z,16.30
2022-09-14T22:31:07.970Z,16.30
2022-09-14T22:33:36.276Z,16.30
2022-09-14T22:36:04.796Z,16.30
2022-09-14T22:38:34.813Z,16.30
2022-09-14T22:41:04.614Z,16.30
2022-09-14T22:43:34.700Z,16.30
2022-09-14T22:46:02.904Z,16.30
2022-09-14T22:48:31.232Z,16.30
2022-09-14T22:50:59.695Z,16.20
2022-09-14T22:53:28.062Z,16.30
2022-09-14T22:55:56.681Z,16.30
2022-09-14T22:58:26.067Z,16.30
2022-09-14T23:00:55.639Z,16.30
2022-09-14T23:03:23.860Z,16.30
2022-09-14T23:05:53.159Z,16.20
2022-09-14T23:08:21.455Z,16.30
2022-09-14T23:10:50.234Z,16.30
2022-09-14T23:13:18.566Z,16.30
2022-09-14T23:15:46.769Z,16.20
2022-09-14T23:18:16.231Z,16.20
2022-09-14T23:20:45.025Z,16.20
2022-09-14T23:23:13.327Z,16.20
2022-09-14T23:25:42.136Z,16.20
2022-09-14T23:28:11.888Z,16.20
2022-09-14T23:30:40.508Z,16.30
2022-09-14T23:33:08.770Z,16.20
2022-09-14T23:35:38.430Z,16.20
2022-09-14T23:38:06.776Z,16.20
2022-09-14T23:40:35.104Z,16.20
2022-09-14T23:43:03.397Z,16.20
2022-09-14T23:45:31.430Z,16.20
2022-09-14T23:47:59.576Z,16.20
2022-09-14T23:50:28.567Z,16.30
2022-09-14T23:52:58.171Z,16.30
2022-09-14T23:55:26.366Z,16.20
2022-09-14T23:57:54.514Z,16.30
